createdAt,value
2022-11-28T00:04:39.405Z,19.05
2022-11-28T00:09:42.995Z,18.33
2022-11-28T00:14:47.634Z,18.50
2022-11-28T00:19:50.950Z,18.13
2022-11-28T00:24:54.204Z,18.40
2022-11-28T00:29:59.048Z,18.30
2022-11-28T00:35:02.753Z,18.80
2022-11-28T00:40:07.035Z,17.88
2022-11-28T00:45:12.179Z,17.75
2022-11-28T00:50:15.485Z,17.05
2022-11-28T00:55:19.171Z,15.77
2022-11-28T01:00:24.916Z,14.48
2022-11-28T01:05:28.358Z,15.30
2022-11-28T01:10:31.895Z,15.55
2022-11-28T01:15:37.128Z,15.43
2022-11-28T01:20:40.432Z,15.10
2022-11-28T01:25:43.866Z,16.77
2022-11-28T01:30:48.539Z,17.95
2022-11-28T01:35:59.132Z,19.98
2022-11-28T01:41:02.993Z,19.27
2022-11-28T01:46:07.737Z,20.77
2022-11-28T01:51:11.737Z,21.15
2022-11-28T01:56:19.098Z,23.75
2022-11-28T02:01:26.416Z,22.75
2022-11-28T02:06:30.009Z,22.73
2022-11-28T02:12:04.343Z,23.95
2022-11-28T02:17:17.899Z,24.60
2022-11-28T02:22:26.677Z,23.93
2022-11-28T02:28:05.015Z,25.42
2022-11-28T02:33:18.491Z,25.27
2022-11-28T02:38:24.225Z,25.35
2022-11-28T02:43:34.154Z,26.10
2022-11-28T02:48:47.099Z,24.37
2022-11-28T02:53:52.145Z,25.27
2022-11-28T02:58:55.425Z,24.90
2022-11-28T03:04:20.126Z,23.20
2022-11-28T03:09:42.302Z,22.20
2022-11-28T03:14:53.144Z,22.77
2022-11-28T03:20:11.846Z,22.20
2022-11-28T03:25:24.488Z,24.33
2022-11-28T03:30:34.008Z,23.73
2022-11-28T03:35:44.648Z,23.50
2022-11-28T03:40:52.216Z,22.10
2022-11-28T03:45:59.466Z,23.92
2022-11-28T03:51:09.185Z,22.13
2022-11-28T03:56:14.835Z,22.73
2022-11-28T04:01:28.547Z,23.80
2022-11-28T04:06:40.983Z,22.38
2022-11-28T04:11:50.776Z,21.67
2022-11-28T04:16:59.419Z,23.45
2022-11-28T04:22:09.681Z,21.98
2022-11-28T04:27:18.713Z,21.10
2022-11-28T04:32:23.638Z,21.85
2022-11-28T04:37:29.520Z,20.58
2022-11-28T04:42:38.402Z,21.08
2022-11-28T04:47:42.368Z,20.23
2022-11-28T04:52:54.763Z,20.83
2022-11-28T04:58:02.116Z,19.95
2022-11-28T05:03:06.717Z,19.20
2022-11-28T05:08:11.551Z,19.27
2022-11-28T05:13:15.130Z,16.38
2022-11-28T05:18:18.494Z,18.45
2022-11-28T05:23:23.163Z,31.35
2022-11-28T05:28:26.427Z,19.43
2022-11-28T05:33:30.557Z,18.25
2022-11-28T05:38:35.760Z,17.67
2022-11-28T05:43:39.087Z,16.67
2022-11-28T05:48:42.548Z,16.88
2022-11-28T05:53:47.197Z,17.33
2022-11-28T05:58:50.847Z,18.80
2022-11-28T06:03:59.843Z,19.42
2022-11-28T06:09:06.114Z,17.58
2022-11-28T06:14:09.680Z,16.20
2022-11-28T06:19:14.216Z,15.17
2022-11-28T06:24:19.232Z,17.17
2022-11-28T06:29:22.518Z,14.07
2022-11-28T06:34:26.065Z,15.35
2022-11-28T06:39:31.980Z,16.77
2022-11-28T06:44:35.530Z,14.70
2022-11-28T06:49:38.826Z,13.77
2022-11-28T06:54:43.652Z,17.00
2022-11-28T06:59:46.913Z,15.55
2022-11-28T07:04:50.365Z,15.82
2022-11-28T07:09:55.194Z,17.23
2022-11-28T07:14:58.407Z,17.63
2022-11-28T07:20:01.747Z,17.20
2022-11-28T07:25:07.061Z,17.67
2022-11-28T07:30:11.294Z,14.30
2022-11-28T07:35:14.545Z,14.50
2022-11-28T07:40:20.703Z,19.83
2022-11-28T07:45:32.985Z,16.87
2022-11-28T07:50:47.365Z,14.05
2022-11-28T07:55:52.085Z,13.57
2022-11-28T08:00:55.636Z,18.03
2022-11-28T08:06:03.168Z,15.25
2022-11-28T08:11:08.933Z,12.63
2022-11-28T08:16:15.028Z,13.35
2022-11-28T08:21:21.035Z,10.57
2022-11-28T08:26:30.453Z,12.05
2022-11-28T08:31:36.298Z,11.85
2022-11-28T08:36:39.782Z,11.73
2022-11-28T08:41:45.658Z,11.45
2022-11-28T08:46:49.373Z,10.95
2022-11-28T08:51:53.035Z,10.60
2022-11-28T08:56:57.633Z,10.30
2022-11-28T09:02:00.904Z,10.55
2022-11-28T09:07:04.218Z,11.40
2022-11-28T09:12:09.342Z,11.40
2022-11-28T09:17:12.662Z,9.87
2022-11-28T09:22:15.980Z,9.90
2022-11-28T09:27:20.611Z,9.65
2022-11-28T09:32:23.881Z,9.43
2022-11-28T09:37:28.972Z,10.67
2022-11-28T09:42:38.115Z,9.07
2022-11-28T09:47:43.762Z,8.50
2022-11-28T09:52:53.565Z,8.82
2022-11-28T09:57:58.454Z,8.45
2022-11-28T10:03:20.906Z,8.33
2022-11-28T10:08:35.959Z,8.85
2022-11-28T10:19:46.160Z,9.55
2022-11-28T10:24:45.684Z,10.10
2022-11-28T10:29:53.348Z,10.57
2022-11-28T10:35:02.567Z,9.43
2022-11-28T10:40:19.029Z,8.83
2022-11-28T10:45:28.834Z,9.23
2022-11-28T10:50:40.189Z,8.90
2022-11-28T10:55:57.728Z,9.30
2022-11-28T11:01:03.725Z,10.10
2022-11-28T11:06:08.398Z,9.60
2022-11-28T11:11:23.568Z,9.37
2022-11-28T11:16:47.917Z,9.73
2022-11-28T11:22:00.795Z,12.73
2022-11-28T11:27:06.885Z,10.33
2022-11-28T11:32:21.812Z,11.40
2022-11-28T11:37:33.909Z,11.15
2022-11-28T11:42:37.395Z,11.52
2022-11-28T11:47:45.878Z,11.50
2022-11-28T11:53:02.794Z,11.18
2022-11-28T11:58:06.734Z,11.43
2022-11-28T12:03:20.747Z,11.43
2022-11-28T12:08:32.871Z,10.13
2022-11-28T12:13:36.285Z,10.23
2022-11-28T12:18:52.965Z,10.75
2022-11-28T12:24:08.168Z,10.60
2022-11-28T12:29:34.256Z,10.10
2022-11-28T12:34:51.195Z,10.05
2022-11-28T12:40:04.185Z,10.90
2022-11-28T12:45:23.490Z,10.60
2022-11-28T12:50:34.087Z,11.23
2022-11-28T12:55:45.927Z,10.90
2022-11-28T13:00:54.982Z,11.57
2022-11-28T13:06:12.500Z,9.98
2022-11-28T13:11:28.303Z,10.93
2022-11-28T13:16:37.166Z,10.48
2022-11-28T13:21:46.849Z,11.13
2022-11-28T13:26:59.148Z,12.90
2022-11-28T13:32:08.182Z,12.47
2022-11-28T13:43:06.422Z,12.25
2022-11-28T13:54:43.436Z,11.40
2022-11-28T13:59:51.658Z,12.10
2022-11-28T14:04:55.200Z,11.27
2022-11-28T14:10:13.389Z,12.75
2022-11-28T14:15:28.875Z,13.23
2022-11-28T14:20:47.196Z,13.10
2022-11-28T14:25:55.026Z,12.67
2022-11-28T14:31:09.504Z,13.87
2022-11-28T14:36:29.621Z,13.17
2022-11-28T14:42:30.535Z,13.90
2022-11-28T14:47:42.546Z,14.00
2022-11-28T14:52:48.073Z,14.32
2022-11-28T14:57:58.936Z,15.18
2022-11-28T15:03:18.840Z,15.45
2022-11-28T15:08:50.106Z,18.20
2022-11-28T15:14:16.049Z,21.17
2022-11-28T15:19:26.096Z,18.55
2022-11-28T15:24:32.644Z,25.73
2022-11-28T15:29:37.940Z,20.85
2022-11-28T15:34:42.473Z,19.52
2022-11-28T15:39:48.697Z,19.00
2022-11-28T15:44:57.860Z,17.73
2022-11-28T15:50:03.469Z,17.50
2022-11-28T15:55:16.744Z,18.13
2022-11-28T16:00:24.403Z,17.83
2022-11-28T16:05:28.753Z,18.75
2022-11-28T16:10:36.475Z,21.97
2022-11-28T16:15:44.710Z,22.17
2022-11-28T16:20:51.434Z,23.47
2022-11-28T16:26:01.549Z,23.75
2022-11-28T16:31:13.383Z,23.90
2022-11-28T16:36:22.741Z,22.48
2022-11-28T16:41:27.259Z,21.13
2022-11-28T16:46:35.986Z,21.70
2022-11-28T16:51:41.120Z,20.63
2022-11-28T16:56:45.510Z,24.38
2022-11-28T17:01:53.632Z,24.13
2022-11-28T17:06:59.235Z,21.87
2022-11-28T17:12:05.769Z,24.40
2022-11-28T17:17:14.829Z,22.57
2022-11-28T17:22:20.947Z,22.47
2022-11-28T17:27:24.259Z,21.97
2022-11-28T17:32:28.923Z,22.58
2022-11-28T17:37:32.172Z,22.20
2022-11-28T17:42:35.465Z,23.90
2022-11-28T17:47:40.185Z,23.42
2022-11-28T17:52:43.605Z,28.00
2022-11-28T17:57:47.371Z,30.17
2022-11-28T18:02:52.455Z,24.83
2022-11-28T18:07:55.818Z,21.20
2022-11-28T18:12:59.142Z,23.63
2022-11-28T18:18:04.459Z,22.50
2022-11-28T18:23:07.864Z,23.42
2022-11-28T18:28:17.289Z,21.52
2022-11-28T18:33:24.342Z,20.65
2022-11-28T18:38:27.791Z,21.23
2022-11-28T18:43:31.303Z,20.73
2022-11-28T18:48:38.967Z,23.20
2022-11-28T18:53:42.841Z,23.95
2022-11-28T18:58:47.933Z,23.05
2022-11-28T19:03:54.585Z,25.88
2022-11-28T19:09:00.437Z,33.17
2022-11-28T19:14:04.198Z,25.10
2022-11-28T19:19:08.871Z,25.05
2022-11-28T19:24:12.958Z,22.80
2022-11-28T19:29:16.302Z,23.43
2022-11-28T19:34:21.341Z,26.90
2022-11-28T19:39:26.509Z,28.07
2022-11-28T19:44:30.718Z,24.00
2022-11-28T19:49:35.999Z,23.53
2022-11-28T19:54:39.387Z,23.42
2022-11-28T19:59:44.357Z,22.73
2022-11-28T20:04:49.387Z,24.50
2022-11-28T20:09:52.698Z,24.13
2022-11-28T20:14:56.163Z,23.13
2022-11-28T20:20:01.077Z,24.65
2022-11-28T20:25:04.688Z,23.38
2022-11-28T20:30:10.505Z,24.10
2022-11-28T20:35:15.570Z,23.00
2022-11-28T20:40:19.361Z,23.07
2022-11-28T20:45:22.736Z,23.42
2022-11-28T20:50:27.652Z,24.53
2022-11-28T20:55:31.218Z,22.17
2022-11-28T21:00:34.502Z,22.97
2022-11-28T21:05:39.188Z,24.60
2022-11-28T21:10:43.974Z,26.77
2022-11-28T21:15:47.535Z,26.53
2022-11-28T21:20:52.985Z,24.38
2022-11-28T21:25:56.326Z,23.85
2022-11-28T21:30:59.687Z,26.93
2022-11-28T21:36:06.424Z,26.83
2022-11-28T21:41:10.072Z,27.15
2022-11-28T21:46:14.074Z,26.20
2022-11-28T21:51:19.674Z,27.08
2022-11-28T21:56:23.004Z,25.00
2022-11-28T22:01:26.411Z,26.70
2022-11-28T22:06:31.274Z,25.50
2022-11-28T22:11:36.261Z,28.00
2022-11-28T22:16:40.362Z,27.10
2022-11-28T22:21:53.833Z,28.07
2022-11-28T22:26:57.855Z,29.02
2022-11-28T22:32:01.443Z,28.42
2022-11-28T22:37:06.137Z,31.27
2022-11-28T22:42:10.138Z,28.63
2022-11-28T22:47:15.459Z,31.20
2022-11-28T22:52:20.263Z,30.23
2022-11-28T22:57:23.731Z,29.77
2022-11-28T23:02:27.400Z,31.20
2022-11-28T23:07:32.576Z,29.65
2022-11-28T23:12:36.297Z,30.10
2022-11-28T23:17:41.179Z,30.08
2022-11-28T23:22:45.947Z,29.67
2022-11-28T23:27:49.383Z,31.40
2022-11-28T23:32:52.983Z,32.42
2022-11-28T23:37:57.764Z,29.73
2022-11-28T23:43:01.155Z,28.50
2022-11-28T23:48:04.531Z,30.57
2022-11-28T23:53:09.181Z,32.42
2022-11-28T23:58:12.596Z,33.73
